Time;durP1;ratioP1;P1;durP2;ratioP2;P2;SDS_P1;SDS_P2;PMS_P1;PMS_P2;Temp;Humidity;BMP_temperature;BMP_pressure;BME280_temperature;BME280_humidity;BME280_pressure;Samples;Min_cycle;Max_cycle;Signal;HPM_P1;HPM_P2
2021/01/22 00:00:35;;;;;;;;;;;;;;;-4.49;94.32;101450.61;1867373;77;20126;-39
2021/01/22 00:03:04;;;;;;;;;;;;;;;-4.47;94.52;101439.19;1867500;76;20186;-40
2021/01/22 00:05:32;;;;;;;;;;;;;;;-4.43;94.76;101435.59;1867349;76;20131;-40
2021/01/22 00:08:01;;;;;;;;;;;;;;;-4.38;95.12;101443.50;1867223;77;20122;-39
2021/01/22 00:10:28;;;;;;;;;;;;;;;-4.33;95.33;101440.80;1867412;77;20158;-39
2021/01/22 00:12:56;;;;;;;;;;;;;;;-4.29;95.54;101443.14;1867629;76;20274;-39
2021/01/22 00:15:24;;;;;;;;;;;;;;;-4.26;95.76;101439.45;1867435;77;20455;-41
2021/01/22 00:17:51;;;;;;;;;;;;;;;-4.21;95.94;101438.05;1867273;77;20189;-40
2021/01/22 00:20:20;;;;;;;;;;;;;;;-4.16;96.10;101440.45;1867508;77;20201;-40
2021/01/22 00:22:48;;;;;;;;;;;;;;;-4.11;96.39;101437.73;1867294;77;20139;-41
2021/01/22 00:25:15;;;;;;;;;;;;;;;-4.04;96.65;101436.86;1867212;77;20166;-41
2021/01/22 00:27:43;;;;;;;;;;;;;;;-3.98;96.90;101436.30;1867203;76;20185;-40
2021/01/22 00:30:13;;;;;;;;;;;;;;;-3.92;97.16;101423.82;1867225;77;20134;-40
2021/01/22 00:32:41;;;;;;;;;;;;;;;-3.86;97.42;101425.42;1867269;76;20154;-41
2021/01/22 00:35:10;;;;;;;;;;;;;;;-3.77;97.70;101423.75;1867367;77;20377;-41
2021/01/22 00:37:38;;;;;;;;;;;;;;;-3.72;97.92;101422.30;1867340;76;20158;-40
2021/01/22 00:40:08;;;;;;;;;;;;;;;-3.67;98.12;101422.13;1867152;77;20396;-41
2021/01/22 00:42:36;;;;;;;;;;;;;;;-3.61;98.30;101428.89;1867522;76;20135;-41
2021/01/22 00:45:07;;;;;;;;;;;;;;;-3.56;98.52;101425.27;1867155;76;20265;-40
2021/01/22 00:47:34;;;;;;;;;;;;;;;-3.51;98.77;101428.54;1867498;77;20257;-40
2021/01/22 00:50:04;;;;;;;;;;;;;;;-3.44;99.00;101419.48;1867509;76;20326;-40
2021/01/22 00:52:33;;;;;;;;;;;;;;;-3.40;99.17;101423.55;1867461;76;20154;-41
2021/01/22 00:55:04;;;;;;;;;;;;;;;-3.36;99.31;101415.63;1834329;77;20285;-41
2021/01/22 00:57:50;;;;;;;;;;;;;;;-3.31;99.50;101417.62;1867344;76;20233;-40
2021/01/22 01:00:20;;;;;;;;;;;;;;;-3.28;99.62;101417.75;1867350;76;20451;-40
2021/01/22 01:02:50;;;;;;;;;;;;;;;-3.24;99.72;101414.56;1794701;79;20219;-41
2021/01/22 01:05:19;;;;;;;;;;;;;;;-3.21;99.82;101421.50;1829468;78;20756;-40
2021/01/22 01:07:47;;;;;;;;;;;;;;;-3.18;99.93;101413.09;1829407;78;20141;-40
2021/01/22 01:10:16;;;;;;;;;;;;;;;-3.15;100.00;101415.40;1797605;78;20125;-41
2021/01/22 01:13:02;;;;;;;;;;;;;;;-3.13;100.00;101402.26;1786687;79;20167;-40
2021/01/22 01:15:48;;;;;;;;;;;;;;;-3.09;100.00;101402.03;1786025;80;20148;-41
2021/01/22 01:18:16;;;;;;;;;;;;;;;-3.06;100.00;101402.16;1786107;80;20234;-41
2021/01/22 01:20:46;;;;;;;;;;;;;;;-3.03;100.00;101409.63;1785656;80;20171;-41
2021/01/22 01:23:14;;;;;;;;;;;;;;;-3.01;100.00;101399.01;1785819;80;20144;-40
2021/01/22 01:25:42;;;;;;;;;;;;;;;-2.99;100.00;101394.84;1785678;80;20231;-41
2021/01/22 01:28:10;;;;;;;;;;;;;;;-2.97;100.00;101400.94;1786024;80;20175;-40
2021/01/22 01:30:38;;;;;;;;;;;;;;;-2.93;100.00;101399.39;1785901;80;20167;-40
2021/01/22 01:33:06;;;;;;;;;;;;;;;-2.90;100.00;101398.27;1785756;80;20164;-41
2021/01/22 01:35:35;;;;;;;;;;;;;;;-2.86;100.00;101385.66;1785674;80;20144;-41
2021/01/22 01:38:03;;;;;;;;;;;;;;;-2.83;100.00;101393.91;1785904;80;20227;-41
2021/01/22 01:40:31;;;;;;;;;;;;;;;-2.80;100.00;101388.91;1785934;80;20410;-41
2021/01/22 01:42:59;;;;;;;;;;;;;;;-2.76;100.00;101378.41;1785857;80;20222;-40
2021/01/22 01:45:29;;;;;;;;;;;;;;;-2.72;100.00;101382.47;1785875;80;20294;-40
2021/01/22 01:47:57;;;;;;;;;;;;;;;-2.69;100.00;101385.16;1785935;80;20164;-40
2021/01/22 01:50:25;;;;;;;;;;;;;;;-2.64;100.00;101385.40;1785924;80;20183;-40
2021/01/22 01:52:52;;;;;;;;;;;;;;;-2.64;100.00;101376.02;1786130;80;20238;-41
2021/01/22 01:55:20;;;;;;;;;;;;;;;-2.61;100.00;101373.97;1785665;80;20168;-41
2021/01/22 01:57:48;;;;;;;;;;;;;;;-2.58;100.00;101373.73;1755834;80;20128;-41
2021/01/22 02:00:17;;;;;;;;;;;;;;;-2.55;100.00;101371.30;1785953;80;20227;-40
2021/01/22 02:02:45;;;;;;;;;;;;;;;-2.53;100.00;101368.41;1829256;78;20204;-40
2021/01/22 02:05:14;;;;;;;;;;;;;;;-2.49;100.00;101362.99;1829420;78;20263;-41
2021/01/22 02:07:42;;;;;;;;;;;;;;;-2.46;100.00;101361.86;1829504;78;20394;-40
2021/01/22 02:10:11;;;;;;;;;;;;;;;-2.43;100.00;101364.16;1829356;78;20196;-41
2021/01/22 02:12:38;;;;;;;;;;;;;;;-2.40;100.00;101360.86;1829568;78;20189;-40
2021/01/22 02:15:08;;;;;;;;;;;;;;;-2.38;100.00;101352.83;1829277;78;20141;-40
2021/01/22 02:17:36;;;;;;;;;;;;;;;-2.34;100.00;101347.42;1829509;78;20133;-40
2021/01/22 02:20:39;;;;;;;;;;;;;;;-2.29;100.00;101350.66;1829229;77;20157;-40
2021/01/22 02:27:07;;;;;;;;;;;;;;;-2.16;100.00;101352.97;1912065;74;20480;-40
2021/01/22 02:29:35;;;;;;;;;;;;;;;-2.17;100.00;101346.51;1874216;76;20154;-42
2021/01/22 02:32:05;;;;;;;;;;;;;;;-2.13;100.00;101354.41;1900866;75;20469;-40
2021/01/22 02:34:37;;;;;;;;;;;;;;;-2.10;100.00;101357.53;1902993;75;20186;-41
2021/01/22 02:37:07;;;;;;;;;;;;;;;-2.11;100.00;101347.66;1903007;75;20168;-40
2021/01/22 02:39:36;;;;;;;;;;;;;;;-2.09;100.00;101346.42;1903080;75;20200;-40
2021/01/22 02:42:05;;;;;;;;;;;;;;;-2.07;100.00;101343.52;1903199;75;20405;-40
2021/01/22 02:44:33;;;;;;;;;;;;;;;-2.06;100.00;101335.01;1903144;75;20124;-40
2021/01/22 02:47:03;;;;;;;;;;;;;;;-2.02;100.00;101336.48;1903419;75;20175;-40
2021/01/22 02:49:31;;;;;;;;;;;;;;;-1.99;100.00;101343.86;1903270;75;20175;-41
2021/01/22 02:51:58;;;;;;;;;;;;;;;-1.98;100.00;101341.77;1903110;75;20120;-41
2021/01/22 02:54:26;;;;;;;;;;;;;;;-1.96;100.00;101350.41;1902757;75;20148;-41
2021/01/22 02:57:07;;;;;;;;;;;;;;;-1.95;100.00;101346.63;1902920;75;20175;-40
2021/01/22 02:59:59;;;;;;;;;;;;;;;-1.91;100.00;101355.36;1902978;75;20144;-40
2021/01/22 03:03:05;;;;;;;;;;;;;;;-1.90;100.00;101350.70;1903110;75;20120;-41
2021/01/22 03:05:35;;;;;;;;;;;;;;;-1.93;100.00;101348.86;1903059;75;20590;-41
2021/01/22 03:08:08;;;;;;;;;;;;;;;-1.91;100.00;101348.94;1902912;75;20187;-41
2021/01/22 03:10:37;;;;;;;;;;;;;;;-1.90;100.00;101348.13;1902482;75;20168;-41
2021/01/22 03:13:05;;;;;;;;;;;;;;;-1.88;100.00;101346.48;1903244;75;20160;-41
2021/01/22 03:15:34;;;;;;;;;;;;;;;-1.85;100.00;101345.34;1902952;75;20120;-40
2021/01/22 03:18:15;;;;;;;;;;;;;;;-1.81;100.00;101349.80;1903013;75;20156;-41
2021/01/22 03:20:44;;;;;;;;;;;;;;;-1.76;100.00;101353.44;1902901;75;20449;-40
2021/01/22 03:23:12;;;;;;;;;;;;;;;-1.69;100.00;101348.63;1903242;75;20454;-40
2021/01/22 03:25:43;;;;;;;;;;;;;;;-1.58;100.00;101350.80;1903228;75;20171;-41
2021/01/22 03:28:11;;;;;;;;;;;;;;;-1.47;100.00;101358.55;1903295;75;20147;-41
2021/01/22 03:30:38;;;;;;;;;;;;;;;-1.34;100.00;101354.39;1903036;75;20227;-42
2021/01/22 03:33:08;;;;;;;;;;;;;;;-1.26;100.00;101356.47;1903049;75;20131;-40
2021/01/22 03:35:36;;;;;;;;;;;;;;;-1.14;100.00;101356.09;1902908;75;20247;-42
2021/01/22 03:38:03;;;;;;;;;;;;;;;-1.03;100.00;101352.66;1902311;75;20176;-41
2021/01/22 03:40:31;;;;;;;;;;;;;;;-0.94;100.00;101360.35;1902354;75;20132;-40
2021/01/22 03:42:59;;;;;;;;;;;;;;;-0.89;100.00;101351.52;1902443;75;20167;-40
2021/01/22 03:45:29;;;;;;;;;;;;;;;-0.85;100.00;101350.81;1902442;75;20183;-40
2021/01/22 03:47:57;;;;;;;;;;;;;;;-0.82;100.00;101350.54;1902384;75;20176;-41
2021/01/22 03:50:25;;;;;;;;;;;;;;;-0.78;100.00;101348.95;1902319;75;20132;-40
2021/01/22 03:52:53;;;;;;;;;;;;;;;-0.75;100.00;101348.20;1902326;75;20159;-41
2021/01/22 03:55:20;;;;;;;;;;;;;;;-0.70;100.00;101347.96;1902139;75;20219;-41
2021/01/22 03:57:48;;;;;;;;;;;;;;;-0.66;100.00;101354.60;1902338;75;20232;-41
2021/01/22 04:00:19;;;;;;;;;;;;;;;-0.62;100.00;101351.72;1902555;75;20144;-41
2021/01/22 04:02:48;;;;;;;;;;;;;;;-0.59;100.00;101357.85;1902554;75;20465;-41
2021/01/22 04:05:16;;;;;;;;;;;;;;;-0.56;100.00;101355.41;1902514;75;20141;-41
2021/01/22 04:07:45;;;;;;;;;;;;;;;-0.53;100.00;101354.66;1900367;75;20151;-42
2021/01/22 04:10:13;;;;;;;;;;;;;;;-0.51;100.00;101358.16;1869056;75;20122;-41
2021/01/22 04:12:40;;;;;;;;;;;;;;;-0.50;100.00;101356.94;1867479;77;20157;-41
2021/01/22 04:15:10;;;;;;;;;;;;;;;-0.47;100.00;101363.91;1867062;77;20177;-41
2021/01/22 04:17:39;;;;;;;;;;;;;;;-0.42;100.00;101358.52;1846710;77;20174;-41
2021/01/22 04:20:08;;;;;;;;;;;;;;;-0.36;100.00;101359.16;1867505;77;20142;-43
2021/01/22 04:22:36;;;;;;;;;;;;;;;-0.32;100.00;101363.59;1867205;77;20447;-42
2021/01/22 04:25:05;;;;;;;;;;;;;;;-0.25;100.00;101363.00;1871123;75;20365;-41
2021/01/22 04:27:33;;;;;;;;;;;;;;;-0.21;100.00;101359.73;1875256;75;20158;-42
2021/01/22 04:30:01;;;;;;;;;;;;;;;-0.18;100.00;101365.87;1867231;77;20399;-43
2021/01/22 04:32:30;;;;;;;;;;;;;;;-0.17;100.00;101357.33;1867396;77;20185;-42
2021/01/22 04:34:57;;;;;;;;;;;;;;;-0.14;100.00;101359.14;1867393;77;20261;-42
2021/01/22 04:37:25;;;;;;;;;;;;;;;-0.12;100.00;101358.77;1866977;77;20174;-41
2021/01/22 04:39:53;;;;;;;;;;;;;;;-0.11;100.00;101361.41;1867118;77;20166;-43
2021/01/22 04:42:22;;;;;;;;;;;;;;;-0.09;100.00;101357.61;1867219;77;20130;-42
2021/01/22 04:44:50;;;;;;;;;;;;;;;-0.10;100.00;101359.30;1867305;75;20237;-42
2021/01/22 04:47:18;;;;;;;;;;;;;;;-0.09;100.00;101360.19;1868342;75;20132;-42
2021/01/22 04:49:49;;;;;;;;;;;;;;;-0.09;100.00;101358.90;1866983;77;20467;-42
2021/01/22 04:52:17;;;;;;;;;;;;;;;-0.08;100.00;101359.37;1867198;77;20126;-42
2021/01/22 04:54:44;;;;;;;;;;;;;;;-0.04;100.00;101358.23;1867274;77;20486;-42
2021/01/22 04:57:12;;;;;;;;;;;;;;;0.02;100.00;101361.45;1866899;77;20392;-43
2021/01/22 04:59:46;;;;;;;;;;;;;;;0.07;100.00;101359.91;1834613;77;20166;-41
2021/01/22 05:02:14;;;;;;;;;;;;;;;0.07;100.00;101359.91;1867001;75;20294;-42
2021/01/22 05:04:43;;;;;;;;;;;;;;;0.07;100.00;101357.33;1867107;76;20183;-43
2021/01/22 05:07:11;;;;;;;;;;;;;;;0.05;100.00;101362.86;1891824;75;20399;-42
2021/01/22 05:09:39;;;;;;;;;;;;;;;0.06;100.00;101357.30;1902358;75;20375;-41
2021/01/22 05:12:10;;;;;;;;;;;;;;;0.07;100.00;101349.59;1902224;75;20215;-41
2021/01/22 05:14:37;;;;;;;;;;;;;;;0.09;100.00;101350.95;1902572;75;20136;-39
2021/01/22 05:17:09;;;;;;;;;;;;;;;0.12;100.00;101354.94;1879374;75;20170;-40
2021/01/22 05:19:38;;;;;;;;;;;;;;;0.18;100.00;101350.88;1870037;75;20182;-40
2021/01/22 05:22:13;;;;;;;;;;;;;;;0.23;100.00;101360.94;1867777;75;20235;-39
2021/01/22 05:24:41;;;;;;;;;;;;;;;0.26;100.00;101358.89;1867281;77;20154;-41
2021/01/22 05:27:11;;;;;;;;;;;;;;;0.27;100.00;101363.19;1867430;77;20122;-43
2021/01/22 05:29:42;;;;;;;;;;;;;;;0.32;100.00;101362.97;1869983;75;20527;-41
2021/01/22 05:32:29;;;;;;;;;;;;;;;0.33;100.00;101359.13;1898698;75;20378;-40
2021/01/22 05:34:58;;;;;;;;;;;;;;;0.35;100.00;101368.22;1901238;75;20295;-40
2021/01/22 05:37:26;;;;;;;;;;;;;;;0.36;100.00;101360.95;1873510;75;20230;-42
2021/01/22 05:40:10;;;;;;;;;;;;;;;0.39;100.00;101367.08;1867179;77;20608;-39
2021/01/22 05:42:56;;;;;;;;;;;;;;;0.40;100.00;101364.97;1869720;75;20475;-39
2021/01/22 05:45:43;;;;;;;;;;;;;;;0.41;100.00;101367.14;1881768;75;20139;-40
2021/01/22 05:48:19;;;;;;;;;;;;;;;0.47;100.00;101374.20;1871854;75;20144;-39
2021/01/22 05:50:52;;;;;;;;;;;;;;;0.49;100.00;101376.03;1878407;75;20136;-40
2021/01/22 05:53:21;;;;;;;;;;;;;;;0.52;100.00;101372.69;1868074;75;20200;-40
2021/01/22 05:56:06;;;;;;;;;;;;;;;0.56;100.00;101372.84;1869600;75;20221;-40
2021/01/22 05:58:41;;;;;;;;;;;;;;;0.60;100.00;101374.69;1878822;75;20225;-39
2021/01/22 06:01:19;;;;;;;;;;;;;;;0.63;100.00;101378.68;1883501;75;20294;-39
2021/01/22 06:03:48;;;;;;;;;;;;;;;0.67;100.00;101380.52;1872261;75;20299;-40
2021/01/22 06:06:22;;;;;;;;;;;;;;;0.69;100.00;101381.47;1873465;75;20146;-41
2021/01/22 06:08:55;;;;;;;;;;;;;;;0.71;100.00;101372.49;1853104;75;20138;-40
2021/01/22 06:11:27;;;;;;;;;;;;;;;0.74;100.00;101375.16;1866503;77;20434;-40
2021/01/22 06:13:56;;;;;;;;;;;;;;;0.76;100.00;101371.81;1874805;75;20170;-42
2021/01/22 06:16:28;;;;;;;;;;;;;;;0.80;100.00;101368.91;1867012;75;20184;-43
2021/01/22 06:19:06;;;;;;;;;;;;;;;0.84;100.00;101375.07;1891028;75;20211;-43
2021/01/22 06:21:49;;;;;;;;;;;;;;;0.89;100.00;101373.51;1890305;75;20274;-44
2021/01/22 06:26:51;;;;;;;;;;;;;;;0.97;100.00;101357.87;1892373;74;20287;-42
2021/01/22 06:29:27;;;;;;;;;;;;;;;0.95;100.00;101369.42;1879496;74;20430;-43
2021/01/22 06:32:00;;;;;;;;;;;;;;;0.97;100.00;101365.20;1894582;74;20219;-42
2021/01/22 06:34:31;;;;;;;;;;;;;;;1.00;100.00;101366.98;1886192;74;20185;-43
2021/01/22 06:36:59;;;;;;;;;;;;;;;1.01;100.00;101363.17;1881663;74;20286;-43
2021/01/22 06:39:27;;;;;;;;;;;;;;;1.04;100.00;101364.58;1878244;74;20213;-42
2021/01/22 06:41:55;;;;;;;;;;;;;;;1.06;100.00;101366.77;1885929;75;20195;-43
2021/01/22 06:44:23;;;;;;;;;;;;;;;1.10;100.00;101367.77;1880097;75;20207;-43
2021/01/22 06:46:51;;;;;;;;;;;;;;;1.12;100.00;101370.84;1886858;74;20200;-44
2021/01/22 06:49:31;;;;;;;;;;;;;;;1.14;100.00;101370.89;1882578;74;20508;-44
2021/01/22 06:52:11;;;;;;;;;;;;;;;1.16;100.00;101359.80;1881947;74;20186;-43
2021/01/22 06:55:02;;;;;;;;;;;;;;;1.22;100.00;101346.61;1880347;74;20207;-43
2021/01/22 06:57:30;;;;;;;;;;;;;;;1.26;100.00;101346.74;1870503;74;20128;-58
2021/01/22 06:59:58;;;;;;;;;;;;;;;1.32;100.00;101348.63;1880580;74;20150;-44
2021/01/22 07:02:37;;;;;;;;;;;;;;;1.35;100.00;101357.38;1888170;75;20286;-44
2021/01/22 07:05:31;;;;;;;;;;;;;;;1.36;100.00;101350.50;1884616;75;20275;-46
2021/01/22 07:08:00;;;;;;;;;;;;;;;1.41;100.00;101350.22;1865884;74;20836;-43
2021/01/22 07:10:57;;;;;;;;;;;;;;;1.43;100.00;101359.78;1886236;74;20180;-44
2021/01/22 07:13:35;;;;;;;;;;;;;;;1.41;100.00;101349.81;1824578;78;20315;-41
2021/01/22 07:16:13;;;;;;;;;;;;;;;1.43;100.00;101348.57;1765337;77;20129;-46
2021/01/22 07:18:57;;;;;;;;;;;;;;;1.47;100.00;101351.70;1824748;76;20118;-42
2021/01/22 07:21:38;;;;;;;;;;;;;;;1.52;100.00;101342.37;1824562;76;20196;-44
2021/01/22 07:24:12;;;;;;;;;;;;;;;1.57;100.00;101347.29;1821033;76;20168;-43
2021/01/22 07:26:43;;;;;;;;;;;;;;;1.62;100.00;101346.13;1818903;76;20138;-44
2021/01/22 07:29:15;;;;;;;;;;;;;;;1.66;100.00;101351.42;1827687;76;20227;-45
2021/01/22 07:31:51;;;;;;;;;;;;;;;1.69;100.00;101348.94;1825891;78;20182;-48
2021/01/22 07:34:43;;;;;;;;;;;;;;;1.72;100.00;101346.42;1806032;78;20213;-51
2021/01/22 07:37:25;;;;;;;;;;;;;;;1.75;100.00;101346.53;1825957;76;20431;-48
2021/01/22 07:39:54;;;;;;;;;;;;;;;1.78;100.00;101340.14;1821799;76;20193;-48
2021/01/22 07:42:23;;;;;;;;;;;;;;;1.82;100.00;101341.13;1825679;76;20281;-48
2021/01/22 07:44:52;;;;;;;;;;;;;;;1.84;100.00;101337.73;1826593;76;20289;-47
2021/01/22 07:47:27;;;;;;;;;;;;;;;1.89;100.00;101343.94;1818644;77;20194;-49
2021/01/22 07:50:00;;;;;;;;;;;;;;;1.92;100.00;101345.30;1847159;75;20173;-47
2021/01/22 07:52:29;;;;;;;;;;;;;;;1.97;100.00;101338.53;1807202;78;20201;-48
2021/01/22 07:54:57;;;;;;;;;;;;;;;2.04;100.00;101338.30;1807181;78;20229;-47
2021/01/22 07:57:25;;;;;;;;;;;;;;;2.06;100.00;101334.05;1807664;78;20208;-47
2021/01/22 07:59:57;;;;;;;;;;;;;;;2.08;100.00;101332.39;1790140;78;20308;-45
2021/01/22 08:02:25;;;;;;;;;;;;;;;2.10;100.00;101332.45;1782524;78;20269;-49
2021/01/22 08:04:58;;;;;;;;;;;;;;;2.11;100.00;101330.29;1768601;78;20211;-49
2021/01/22 08:07:39;;;;;;;;;;;;;;;2.12;100.00;101328.17;1783242;78;20203;-47
2021/01/22 08:10:09;;;;;;;;;;;;;;;2.14;100.00;101331.69;1799883;78;20446;-46
2021/01/22 08:12:38;;;;;;;;;;;;;;;2.17;100.00;101326.58;1800350;78;20208;-45
2021/01/22 08:15:22;;;;;;;;;;;;;;;2.18;100.00;101326.62;1801399;78;20206;-48
2021/01/22 08:17:49;;;;;;;;;;;;;;;2.22;100.00;101321.13;1811159;78;20202;-48
2021/01/22 08:20:18;;;;;;;;;;;;;;;2.26;100.00;101321.25;1809065;78;20550;-47
2021/01/22 08:22:56;;;;;;;;;;;;;;;2.30;100.00;101323.48;1807267;78;20196;-47
2021/01/22 08:25:34;;;;;;;;;;;;;;;2.37;100.00;101318.93;1809690;78;20231;-46
2021/01/22 08:28:06;;;;;;;;;;;;;;;2.43;100.00;101318.25;1779562;78;20294;-47
2021/01/22 08:30:35;;;;;;;;;;;;;;;2.49;100.00;101315.81;1805164;78;20194;-50
2021/01/22 08:33:04;;;;;;;;;;;;;;;2.56;100.00;101312.10;1806095;78;20183;-49
2021/01/22 08:35:37;;;;;;;;;;;;;;;2.65;100.00;101301.11;1801651;78;20471;-49
2021/01/22 08:38:03;;;;;;;;;;;;;;;2.73;100.00;101300.48;1809546;78;20369;-48
2021/01/22 08:40:43;;;;;;;;;;;;;;;2.82;100.00;101301.55;1771770;78;20503;-47
2021/01/22 08:43:34;;;;;;;;;;;;;;;2.96;100.00;101297.13;1783730;78;20461;-47
2021/01/22 08:46:10;;;;;;;;;;;;;;;3.22;100.00;101296.88;1776239;80;20173;-47
2021/01/22 08:48:39;;;;;;;;;;;;;;;3.63;100.00;101277.02;1803319;78;20193;-41
2021/01/22 08:51:07;;;;;;;;;;;;;;;4.13;100.00;101286.69;1807001;78;20181;-44
2021/01/22 08:53:51;;;;;;;;;;;;;;;4.64;100.00;101276.35;1793224;78;20273;-43
2021/01/22 08:56:21;;;;;;;;;;;;;;;5.07;100.00;101270.51;1768304;78;20137;-43
2021/01/22 08:59:07;;;;;;;;;;;;;;;5.40;100.00;101270.11;1805965;78;20179;-45
2021/01/22 09:01:58;;;;;;;;;;;;;;;5.56;100.00;101267.75;1800743;78;20200;-44
2021/01/22 09:04:34;;;;;;;;;;;;;;;5.50;100.00;101265.50;1805243;78;20189;-45
2021/01/22 09:07:05;;;;;;;;;;;;;;;5.51;100.00;101265.48;1794946;80;21266;-46
2021/01/22 09:09:48;;;;;;;;;;;;;;;5.58;99.10;101266.44;1804834;77;20227;-45
2021/01/22 09:12:21;;;;;;;;;;;;;;;5.57;96.66;101264.72;1802426;78;20502;-48
2021/01/22 09:15:00;;;;;;;;;;;;;;;5.48;95.00;101258.09;1812162;78;20189;-45
2021/01/22 09:17:46;;;;;;;;;;;;;;;5.45;93.91;101264.54;1810937;78;20230;-43
2021/01/22 09:20:21;;;;;;;;;;;;;;;5.51;93.04;101263.34;1795086;80;20260;-48
2021/01/22 09:22:50;;;;;;;;;;;;;;;5.61;92.15;101269.09;1804287;78;20196;-47
2021/01/22 09:25:19;;;;;;;;;;;;;;;5.72;91.31;101264.89;1808989;78;20212;-46
2021/01/22 09:27:47;;;;;;;;;;;;;;;5.82;90.61;101259.38;1797660;78;20507;-45
2021/01/22 09:30:16;;;;;;;;;;;;;;;5.81;89.98;101253.30;1807495;78;20618;-46
2021/01/22 09:32:46;;;;;;;;;;;;;;;5.77;89.46;101259.34;1809678;78;20201;-48
2021/01/22 09:35:17;;;;;;;;;;;;;;;5.76;88.92;101265.82;1782309;79;20236;-47
2021/01/22 09:37:46;;;;;;;;;;;;;;;5.65;88.35;101266.09;1803518;78;20195;-47
2021/01/22 09:40:17;;;;;;;;;;;;;;;5.62;88.31;101263.05;1791802;78;20163;-46
2021/01/22 09:42:47;;;;;;;;;;;;;;;5.67;88.04;101265.70;1786626;78;20343;-47
2021/01/22 09:45:17;;;;;;;;;;;;;;;5.67;87.65;101254.87;1811833;78;20553;-47
2021/01/22 09:47:45;;;;;;;;;;;;;;;5.66;87.30;101263.52;1807468;78;20317;-50
2021/01/22 09:50:15;;;;;;;;;;;;;;;5.54;86.93;101259.47;1794870;78;20193;-47
2021/01/22 09:52:43;;;;;;;;;;;;;;;5.46;87.10;101261.09;1799519;78;20169;-45
2021/01/22 09:55:15;;;;;;;;;;;;;;;5.50;87.33;101259.88;1803061;78;20179;-47
2021/01/22 09:57:42;;;;;;;;;;;;;;;5.62;87.15;101253.94;1811491;78;20174;-50
2021/01/22 10:00:14;;;;;;;;;;;;;;;5.69;86.78;101253.59;1807842;78;20189;-45
2021/01/22 10:02:46;;;;;;;;;;;;;;;5.76;86.66;101245.88;1807415;78;20280;-45
2021/01/22 10:05:15;;;;;;;;;;;;;;;5.85;86.40;101243.36;1805885;78;20196;-47
2021/01/22 10:07:45;;;;;;;;;;;;;;;5.92;86.03;101241.73;1803665;78;20207;-46
2021/01/22 10:10:13;;;;;;;;;;;;;;;5.89;85.64;101238.69;1805689;78;20139;-46
2021/01/22 10:12:41;;;;;;;;;;;;;;;5.85;85.51;101239.46;1808901;77;20213;-47
2021/01/22 10:15:12;;;;;;;;;;;;;;;5.81;85.63;101237.69;1808479;78;20197;-46
2021/01/22 10:17:42;;;;;;;;;;;;;;;5.82;85.79;101238.57;1794055;80;20505;-48
2021/01/22 10:20:13;;;;;;;;;;;;;;;5.85;85.76;101238.16;1811446;78;20135;-46
2021/01/22 10:22:41;;;;;;;;;;;;;;;5.86;85.84;101234.70;1803919;78;20197;-45
2021/01/22 10:26:49;;;;;;;;;;;;;;;6.05;85.80;101216.70;1899874;74;20290;-47
2021/01/22 10:29:17;;;;;;;;;;;;;;;6.02;85.42;101221.48;1861467;75;20153;-47
2021/01/22 10:31:48;;;;;;;;;;;;;;;6.00;85.38;101215.38;1821031;75;20139;-45
2021/01/22 10:34:22;;;;;;;;;;;;;;;5.99;85.45;101215.80;1815578;75;20358;-45
2021/01/22 10:37:15;;;;;;;;;;;;;;;6.11;85.63;101215.47;1754751;79;20199;-46
2021/01/22 10:40:05;;;;;;;;;;;;;;;6.33;85.33;101212.22;1755004;79;20400;-48
2021/01/22 10:42:34;;;;;;;;;;;;;;;6.51;84.87;101207.16;1726672;79;20200;-53
2021/01/22 10:45:05;;;;;;;;;;;;;;;6.66;84.36;101201.20;1775204;79;20210;-46
2021/01/22 10:47:33;;;;;;;;;;;;;;;6.72;83.78;101199.50;1787252;79;20427;-47
2021/01/22 10:50:04;;;;;;;;;;;;;;;6.80;83.49;101199.56;1798769;79;20185;-47
2021/01/22 10:52:32;;;;;;;;;;;;;;;6.90;83.10;101196.56;1825661;77;20175;-45
2021/01/22 10:55:00;;;;;;;;;;;;;;;6.85;82.19;101196.55;1831406;77;20173;-47
2021/01/22 10:57:29;;;;;;;;;;;;;;;6.71;81.96;101202.97;1823840;77;20163;-53
2021/01/22 10:59:57;;;;;;;;;;;;;;;6.65;81.97;101196.41;1829155;77;20458;-46
2021/01/22 11:02:24;;;;;;;;;;;;;;;6.68;82.00;101187.76;1817322;78;20338;-46
2021/01/22 11:04:52;;;;;;;;;;;;;;;6.73;81.83;101180.41;1803148;78;20276;-46
2021/01/22 11:07:26;;;;;;;;;;;;;;;6.69;81.63;101185.17;1799618;78;20226;-47
2021/01/22 11:09:57;;;;;;;;;;;;;;;6.57;81.58;101177.67;1798214;78;20198;-46
2021/01/22 11:12:24;;;;;;;;;;;;;;;6.32;81.73;101174.02;1806643;78;20446;-48
2021/01/22 11:14:52;;;;;;;;;;;;;;;6.16;82.25;101173.45;1804285;78;20187;-47
2021/01/22 11:17:20;;;;;;;;;;;;;;;6.14;82.70;101167.35;1806297;78;20204;-48
2021/01/22 11:19:48;;;;;;;;;;;;;;;6.15;82.99;101168.67;1809103;78;20208;-47
2021/01/22 11:22:20;;;;;;;;;;;;;;;6.18;82.85;101166.08;1767701;78;20309;-46
2021/01/22 11:25:01;;;;;;;;;;;;;;;6.20;82.85;101160.89;1732725;78;20185;-45
2021/01/22 11:27:30;;;;;;;;;;;;;;;6.29;82.69;101155.78;1759478;78;20178;-46
2021/01/22 11:30:00;;;;;;;;;;;;;;;6.39;82.22;101155.84;1749439;78;20185;-45
2021/01/22 11:32:30;;;;;;;;;;;;;;;6.49;82.07;101154.20;1786999;78;20251;-44
2021/01/22 11:35:02;;;;;;;;;;;;;;;6.55;81.40;101147.73;1803512;78;20254;-44
2021/01/22 11:37:32;;;;;;;;;;;;;;;6.48;81.09;101152.88;1800087;78;20199;-45
2021/01/22 11:40:03;;;;;;;;;;;;;;;6.35;81.12;101151.91;1761423;78;20191;-45
2021/01/22 11:42:35;;;;;;;;;;;;;;;6.14;81.32;101147.83;1797414;78;20280;-43
2021/01/22 11:45:05;;;;;;;;;;;;;;;5.99;81.90;101147.26;1801906;78;20328;-42
2021/01/22 11:47:34;;;;;;;;;;;;;;;5.91;82.51;101151.08;1800936;78;20205;-44
2021/01/22 11:50:05;;;;;;;;;;;;;;;5.85;82.92;101143.61;1800063;78;20316;-44
2021/01/22 11:52:36;;;;;;;;;;;;;;;5.72;83.43;101150.85;1750828;78;20207;-44
2021/01/22 11:55:07;;;;;;;;;;;;;;;5.60;83.83;101140.77;1749152;78;20280;-45
2021/01/22 11:57:40;;;;;;;;;;;;;;;5.54;84.39;101143.73;1757617;78;20350;-44
2021/01/22 12:00:20;;;;;;;;;;;;;;;5.43;84.76;101149.26;1751823;78;20189;-42
2021/01/22 12:02:48;;;;;;;;;;;;;;;5.37;85.22;101143.56;1798670;78;20161;-44
2021/01/22 12:05:18;;;;;;;;;;;;;;;5.28;85.68;101136.95;1799028;78;20203;-43
2021/01/22 12:07:52;;;;;;;;;;;;;;;5.20;86.06;101142.05;1784096;78;20188;-44
2021/01/22 12:10:27;;;;;;;;;;;;;;;5.13;86.43;101137.63;1768444;78;20326;-43
2021/01/22 12:12:55;;;;;;;;;;;;;;;5.05;86.94;101139.28;1780733;79;20564;-44
2021/01/22 12:15:23;;;;;;;;;;;;;;;5.00;87.41;101133.13;1796246;78;20246;-43
2021/01/22 12:17:52;;;;;;;;;;;;;;;4.95;87.81;101132.20;1798742;78;20236;-40
2021/01/22 12:20:20;;;;;;;;;;;;;;;4.90;88.22;101133.88;1799529;78;20468;-43
2021/01/22 12:22:48;;;;;;;;;;;;;;;4.87;88.58;101131.22;1801403;78;20491;-43
2021/01/22 12:25:16;;;;;;;;;;;;;;;4.86;88.99;101126.88;1799074;78;20181;-42
2021/01/22 12:27:44;;;;;;;;;;;;;;;4.86;89.12;101128.63;1797665;78;20226;-44
2021/01/22 12:30:13;;;;;;;;;;;;;;;4.82;89.28;101130.30;1809355;78;20133;-44
2021/01/22 12:32:42;;;;;;;;;;;;;;;4.81;89.43;101128.55;1802806;78;20297;-44
2021/01/22 12:35:16;;;;;;;;;;;;;;;4.79;89.46;101131.57;1760556;79;20186;-45
2021/01/22 12:37:45;;;;;;;;;;;;;;;4.75;89.51;101131.06;1797681;78;20322;-45
2021/01/22 12:40:15;;;;;;;;;;;;;;;4.68;89.59;101132.70;1771059;78;20235;-44
2021/01/22 12:42:46;;;;;;;;;;;;;;;4.65;89.97;101129.20;1779667;78;20300;-45
2021/01/22 12:45:16;;;;;;;;;;;;;;;4.61;90.15;101135.19;1798127;78;20222;-42
2021/01/22 12:47:46;;;;;;;;;;;;;;;4.56;90.27;101132.53;1798436;78;20498;-43
2021/01/22 12:50:14;;;;;;;;;;;;;;;4.50;90.43;101131.14;1800685;78;20213;-43
2021/01/22 12:52:44;;;;;;;;;;;;;;;4.46;90.71;101125.89;1801621;78;20146;-43
2021/01/22 12:55:14;;;;;;;;;;;;;;;4.43;91.00;101128.00;1818402;78;20146;-44
2021/01/22 12:57:41;;;;;;;;;;;;;;;4.42;91.25;101131.45;1807062;78;20285;-44
2021/01/22 13:00:11;;;;;;;;;;;;;;;4.41;91.31;101127.09;1804915;78;20145;-44
2021/01/22 13:02:39;;;;;;;;;;;;;;;4.36;91.32;101126.16;1797341;78;20203;-51
2021/01/22 13:05:08;;;;;;;;;;;;;;;4.35;91.51;101131.78;1798324;78;20136;-43
2021/01/22 13:07:36;;;;;;;;;;;;;;;4.34;91.61;101131.33;1798900;78;20576;-44